Main page
Satellite images 15-day forecastsClimateMarine weather Cyclones Lightning AirportsFAQ Newsletter About
Weather : Europe Africa North America South America Asia Australia-Oceania Others
Languages Contact

Milan, Italy

Malpensa

latitude: 45-37N, longitude: 008-44E, elevation: 234 m


METAR: LIMC 231350Z 20004KT 120V260 CAVOK 22/10 Q1015 NOSIG
short-TAF: out of date (3919 hours)
long-TAF: LIMC 231100Z 2312/2418 01005KT 9999 SCT030

Time: 16:21 (14:21 UTC)

Current weather observation

The report was made 31 minutes ago, at 13:50 UTC  
Wind 04 kt from south/southwest, varying between east/southeast and west
Temperature 22°C
Humidity 46%
Pressure 1015 hPa
Visibility 10 km or more
no clouds below 1500 m and no cumulonimbus

Change units

Forecast

The report was made 2 hours and 57 minutes ago, at 11:24 UTC  
Forecast valid from 23 at 12 UTC to 24 at 18 UTC
Wind 05 kt from north
Visibility 10 km or more
Scattered clouds at a height of 3000 ft
The information on this site is subject to a disclaimer
Weather : Europe Africa North America South America Asia Australia-Oceania Others
Satellite images 15-day forecastsClimateMarine weather Cyclones Lightning AirportsFAQ Languages Contact Newsletter About